createdAt,value
2017-05-29T00:00:20.532Z,27.19
2017-05-29T00:01:29.528Z,27.34
2017-05-29T00:02:39.151Z,27.31
2017-05-29T00:03:49.589Z,27.28
2017-05-29T00:31:53.671Z,27.29
2017-05-29T00:33:03.626Z,27.25
2017-05-29T00:34:12.627Z,27.24
2017-05-29T00:35:22.262Z,27.27
2017-05-29T00:36:32.494Z,27.24
2017-05-29T00:37:42.098Z,27.27
2017-05-29T00:38:52.320Z,27.21
2017-05-29T00:40:02.244Z,27.19
2017-05-29T00:41:11.876Z,27.18
2017-05-29T00:42:21.802Z,27.24
2017-05-29T00:43:31.562Z,27.19
2017-05-29T00:44:41.795Z,27.21
2017-05-29T00:45:50.791Z,27.19
2017-05-29T00:47:00.717Z,27.13
2017-05-29T00:48:10.940Z,27.14
2017-05-29T00:49:21.010Z,27.13
2017-05-29T00:50:31.261Z,27.14
2017-05-29T00:51:41.169Z,27.17
2017-05-29T00:52:51.399Z,27.17
2017-05-29T00:54:01.324Z,27.04
2017-05-29T00:55:10.425Z,27.04
2017-05-29T00:56:20.337Z,27.06
2017-05-29T00:57:29.942Z,27.06
2017-05-29T00:58:39.564Z,27.06
2017-05-29T00:59:49.796Z,27.1
2017-05-29T01:01:00.139Z,27.12
2017-05-29T01:02:10.066Z,27.02
2017-05-29T01:03:19.692Z,27.09
2017-05-29T01:04:29.315Z,27.12
2017-05-29T01:05:39.552Z,27.06
2017-05-29T01:06:49.574Z,27.06
2017-05-29T01:07:59.819Z,27.02
2017-05-29T01:09:09.759Z,27.12
2017-05-29T01:10:19.993Z,27.04
2017-05-29T01:11:30.218Z,26.97
2017-05-29T01:12:40.296Z,26.99
2017-05-29T01:13:50.529Z,27
2017-05-29T01:15:00.134Z,26.94
2017-05-29T01:16:09.736Z,26.95
2017-05-29T01:17:19.356Z,26.97
2017-05-29T01:18:29.637Z,26.95
2017-05-29T01:19:39.250Z,26.94
2017-05-29T01:20:49.154Z,26.94
2017-05-29T01:21:58.755Z,26.92
2017-05-29T01:23:08.679Z,26.92
2017-05-29T01:24:17.982Z,26.92
2017-05-29T01:25:28.203Z,26.89
2017-05-29T01:26:38.111Z,26.94
2017-05-29T01:27:48.331Z,26.91
2017-05-29T01:28:57.934Z,26.89
2017-05-29T01:30:07.844Z,26.92
2017-05-29T01:31:17.471Z,26.82
2017-05-29T01:32:27.390Z,26.92
2017-05-29T01:33:37.303Z,26.91
2017-05-29T01:34:46.618Z,26.85
2017-05-29T01:35:56.313Z,26.84
2017-05-29T01:37:05.626Z,26.82
2017-05-29T01:38:15.226Z,26.81
2017-05-29T01:39:25.457Z,26.87
2017-05-29T01:40:34.831Z,26.85
2017-05-29T01:41:44.758Z,26.87
2017-05-29T01:42:54.678Z,26.84
2017-05-29T01:44:04.599Z,26.85
2017-05-29T01:45:14.824Z,26.89
2017-05-29T01:46:24.455Z,26.82
2017-05-29T01:47:33.903Z,26.81
2017-05-29T01:48:43.829Z,26.75
2017-05-29T01:49:54.077Z,26.82
2017-05-29T01:51:04.311Z,26.8
2017-05-29T01:52:13.610Z,26.73
2017-05-29T01:53:23.582Z,26.76
2017-05-29T01:54:32.890Z,26.76
2017-05-29T01:55:42.499Z,26.76
2017-05-29T01:56:51.828Z,26.82
2017-05-29T01:58:02.098Z,26.73
2017-05-29T01:59:11.541Z,26.77
2017-05-29T02:00:21.456Z,26.73
2017-05-29T02:01:31.746Z,26.72
2017-05-29T02:02:41.356Z,26.72
2017-05-29T02:03:51.571Z,26.77
2017-05-29T02:05:01.933Z,26.73
2017-05-29T02:06:12.150Z,26.65
2017-05-29T02:07:22.066Z,26.65
2017-05-29T02:08:31.667Z,26.67
2017-05-29T02:09:41.591Z,26.63
2017-05-29T02:10:51.506Z,26.73
2017-05-29T02:12:01.435Z,26.66
2017-05-29T02:13:11.373Z,26.77
2017-05-29T02:14:20.683Z,26.67
2017-05-29T02:15:30.592Z,26.67
2017-05-29T02:16:40.848Z,26.75
2017-05-29T02:17:50.167Z,26.76
2017-05-29T02:18:59.771Z,26.69
2017-05-29T02:20:09.403Z,26.65
2017-05-29T02:21:19.642Z,26.73
2017-05-29T02:22:29.700Z,26.65
2017-05-29T02:23:39.622Z,26.58
2017-05-29T02:24:49.534Z,26.63
2017-05-29T02:25:59.458Z,26.66
2017-05-29T02:27:09.067Z,26.65
2017-05-29T02:28:18.380Z,26.63
2017-05-29T02:29:27.686Z,26.67
2017-05-29T02:30:37.892Z,26.65
2017-05-29T02:31:48.094Z,26.7
2017-05-29T02:32:58.018Z,26.62
2017-05-29T02:34:07.928Z,26.57
2017-05-29T02:35:18.380Z,26.57
2017-05-29T02:36:28.301Z,26.57
2017-05-29T02:37:38.649Z,26.55
2017-05-29T02:38:48.553Z,26.58
2017-05-29T02:39:58.467Z,26.55
2017-05-29T02:41:07.462Z,26.55
2017-05-29T02:42:17.689Z,26.51
2017-05-29T02:43:27.613Z,26.54
2017-05-29T02:44:37.205Z,26.55
2017-05-29T02:45:47.127Z,26.62
2017-05-29T02:46:57.038Z,26.57
2017-05-29T02:48:06.953Z,26.57
2017-05-29T02:49:16.571Z,26.55
2017-05-29T02:50:26.502Z,26.57
2017-05-29T02:51:36.572Z,26.57
2017-05-29T02:52:46.486Z,26.54
2017-05-29T02:53:56.094Z,26.57
2017-05-29T02:55:06.023Z,26.51
2017-05-29T02:56:16.267Z,26.6
2017-05-29T02:57:26.540Z,26.57
2017-05-29T02:58:36.462Z,26.57
2017-05-29T02:59:46.714Z,26.57
2017-05-29T03:00:56.950Z,26.57
2017-05-29T03:02:06.865Z,26.58
2017-05-29T03:03:17.181Z,26.54
2017-05-29T03:04:27.084Z,26.57
2017-05-29T03:05:36.998Z,26.55
2017-05-29T03:06:46.912Z,26.54
2017-05-29T03:07:57.161Z,26.54
2017-05-29T03:09:07.119Z,26.62
2017-05-29T03:10:16.731Z,26.57
2017-05-29T03:11:26.651Z,26.57
2017-05-29T03:12:36.577Z,26.58
2017-05-29T03:13:46.499Z,26.51
2017-05-29T03:14:56.615Z,26.54
2017-05-29T03:16:06.225Z,26.57
2017-05-29T03:17:15.515Z,26.58
2017-05-29T03:18:25.122Z,26.52
2017-05-29T03:19:35.371Z,26.57
2017-05-29T03:20:45.145Z,26.63
2017-05-29T03:21:55.046Z,26.51
2017-05-29T03:23:04.966Z,26.57
2017-05-29T03:24:14.883Z,26.58
2017-05-29T03:25:25.112Z,26.55
2017-05-29T03:26:34.455Z,26.63
2017-05-29T03:27:44.674Z,26.54
2017-05-29T03:28:54.600Z,26.58
2017-05-29T03:30:04.219Z,26.57
2017-05-29T03:31:14.129Z,26.63
2017-05-29T03:32:24.146Z,26.54
2017-05-29T03:33:34.384Z,26.55
2017-05-29T03:34:44.605Z,26.51
2017-05-29T03:35:54.513Z,26.47
2017-05-29T03:37:04.124Z,26.52
2017-05-29T03:38:14.029Z,26.62
2017-05-29T03:39:23.645Z,26.57
2017-05-29T03:40:33.559Z,26.58
2017-05-29T03:41:43.467Z,26.54
2017-05-29T03:42:53.699Z,26.58
2017-05-29T03:44:03.765Z,26.52
2017-05-29T03:45:13.672Z,26.52
2017-05-29T03:46:23.598Z,26.57
2017-05-29T03:47:33.828Z,26.52
2017-05-29T03:48:43.756Z,26.52
2017-05-29T03:49:54.129Z,26.57
2017-05-29T03:51:03.753Z,26.47
2017-05-29T03:52:13.663Z,26.58
2017-05-29T03:53:23.272Z,26.45
2017-05-29T03:54:33.492Z,26.54
2017-05-29T03:55:43.097Z,26.52
2017-05-29T03:56:53.371Z,26.55
2017-05-29T03:58:03.605Z,26.51
2017-05-29T03:59:13.508Z,26.5
2017-05-29T04:00:23.428Z,26.54
2017-05-29T04:01:33.796Z,26.62
2017-05-29T04:02:42.791Z,26.58
2017-05-29T04:03:52.723Z,26.57
2017-05-29T04:05:02.946Z,26.52
2017-05-29T04:06:12.259Z,26.55
2017-05-29T04:07:21.872Z,26.51
2017-05-29T04:08:31.781Z,26.57
2017-05-29T04:09:41.403Z,26.48
2017-05-29T04:10:51.009Z,26.57
2017-05-29T04:12:00.007Z,26.63
2017-05-29T04:13:10.274Z,26.51
2017-05-29T04:14:20.524Z,26.58
2017-05-29T04:15:30.429Z,26.51
2017-05-29T04:16:40.425Z,26.58
2017-05-29T04:17:50.628Z,26.57
2017-05-29T04:19:00.700Z,26.52
2017-05-29T04:20:10.608Z,26.54
2017-05-29T04:21:20.232Z,26.57
2017-05-29T04:22:29.852Z,26.55
2017-05-29T04:23:40.094Z,26.57
2017-05-29T04:24:50.448Z,26.57
2017-05-29T04:26:00.406Z,26.51
2017-05-29T04:27:09.720Z,26.57
2017-05-29T04:28:19.352Z,26.57
2017-05-29T04:29:29.292Z,26.58
2017-05-29T04:30:39.208Z,26.69
2017-05-29T04:31:48.839Z,26.66
2017-05-29T04:32:58.761Z,26.65
2017-05-29T04:34:08.392Z,26.66
2017-05-29T04:35:18.653Z,26.66
2017-05-29T04:36:28.894Z,26.66
2017-05-29T04:37:38.530Z,26.63
2017-05-29T04:38:48.439Z,26.67
2017-05-29T04:39:58.048Z,26.6
2017-05-29T04:41:07.358Z,26.58
2017-05-29T04:42:16.986Z,26.67
2017-05-29T04:43:27.216Z,26.66
2017-05-29T04:44:36.835Z,26.77
2017-05-29T04:45:47.066Z,26.73
2017-05-29T04:46:56.986Z,26.72
2017-05-29T04:48:06.778Z,26.67
2017-05-29T04:49:16.391Z,26.65
2017-05-29T04:50:26.605Z,26.69
2017-05-29T04:51:35.907Z,26.65
2017-05-29T04:52:45.827Z,26.6
2017-05-29T04:53:55.786Z,26.69
2017-05-29T04:55:05.698Z,26.67
2017-05-29T04:56:14.990Z,26.63
2017-05-29T04:57:24.901Z,26.65
2017-05-29T04:58:34.502Z,26.7
2017-05-29T04:59:44.210Z,26.73
2017-05-29T05:00:53.805Z,26.75
2017-05-29T05:02:03.416Z,26.82
2017-05-29T05:03:13.332Z,26.84
2017-05-29T05:04:23.254Z,26.85
2017-05-29T05:05:33.172Z,26.99
2017-05-29T05:06:42.765Z,27
2017-05-29T05:07:52.682Z,27
2017-05-29T05:09:01.983Z,27.09
2017-05-29T05:10:11.886Z,27.09
2017-05-29T05:11:21.334Z,27.12
2017-05-29T05:12:31.234Z,27.19
2017-05-29T05:13:40.829Z,27.28
2017-05-29T05:14:51.048Z,27.27
2017-05-29T05:16:00.675Z,27.22
2017-05-29T05:17:10.600Z,27.36
2017-05-29T05:18:20.846Z,27.32
2017-05-29T05:19:30.463Z,27.39
2017-05-29T05:20:40.095Z,27.49
2017-05-29T05:21:49.709Z,27.57
2017-05-29T05:23:00.341Z,27.59
2017-05-29T05:24:10.263Z,27.72
2017-05-29T05:25:19.892Z,27.7
2017-05-29T05:26:29.506Z,27.75
2017-05-29T05:27:39.420Z,27.82
2017-05-29T05:28:49.511Z,27.9
2017-05-29T05:29:59.746Z,27.93
2017-05-29T05:31:09.969Z,27.92
2017-05-29T05:32:19.265Z,27.94
2017-05-29T05:33:28.887Z,27.93
2017-05-29T05:34:38.901Z,28.04
2017-05-29T05:35:48.207Z,28.12
2017-05-29T05:36:58.122Z,28.17
2017-05-29T05:38:08.046Z,28.07
2017-05-29T05:39:17.955Z,28.25
2017-05-29T05:40:27.962Z,28.19
2017-05-29T05:41:37.574Z,28.3
2017-05-29T05:42:47.501Z,28.4
2017-05-29T05:43:57.714Z,28.43
2017-05-29T05:45:07.634Z,28.4
2017-05-29T05:46:17.113Z,28.44
2017-05-29T05:47:27.341Z,28.48
2017-05-29T05:48:37.585Z,28.55
2017-05-29T05:49:47.523Z,28.51
2017-05-29T05:50:57.454Z,28.55
2017-05-29T05:52:07.210Z,28.58
2017-05-29T05:53:17.129Z,28.56
2017-05-29T05:54:27.360Z,28.54
2017-05-29T05:55:37.281Z,28.64
2017-05-29T05:56:47.491Z,28.68
2017-05-29T05:57:57.159Z,28.74
2017-05-29T05:59:07.071Z,28.78
2017-05-29T06:00:16.677Z,28.9
2017-05-29T06:01:26.297Z,28.88
2017-05-29T06:02:35.604Z,29.02
2017-05-29T06:03:45.818Z,29.05
2017-05-29T06:04:55.744Z,29.05
2017-05-29T06:06:05.398Z,29.19
2017-05-29T06:07:15.328Z,29.27
2017-05-29T06:08:25.272Z,29.28
2017-05-29T06:09:35.031Z,29.34
2017-05-29T06:10:44.942Z,29.39
2017-05-29T06:11:54.858Z,29.43
2017-05-29T06:13:04.776Z,29.57
2017-05-29T06:14:14.383Z,29.55
2017-05-29T06:15:24.089Z,29.57
2017-05-29T06:16:34.013Z,29.6
2017-05-29T06:17:43.933Z,29.58
2017-05-29T06:18:53.863Z,29.63
2017-05-29T06:20:04.079Z,29.63
2017-05-29T06:21:13.535Z,29.6
2017-05-29T06:22:23.149Z,29.55
2017-05-29T06:23:32.773Z,29.53
2017-05-29T06:24:42.094Z,29.61
2017-05-29T06:25:51.712Z,29.51
2017-05-29T06:27:01.807Z,29.42
2017-05-29T06:28:12.073Z,29.57
2017-05-29T06:29:21.707Z,29.52
2017-05-29T06:30:31.633Z,29.57
2017-05-29T06:31:41.560Z,29.46
2017-05-29T06:32:51.589Z,29.52
2017-05-29T06:34:01.592Z,29.52
2017-05-29T06:35:11.522Z,29.58
2017-05-29T06:36:20.852Z,29.55
2017-05-29T06:37:31.103Z,29.63
2017-05-29T06:38:40.876Z,29.53
2017-05-29T06:39:50.797Z,29.58
2017-05-29T06:41:00.410Z,29.71
2017-05-29T06:42:10.649Z,29.65
2017-05-29T06:43:19.965Z,29.65
2017-05-29T06:44:29.598Z,29.55
2017-05-29T06:45:39.840Z,29.57
2017-05-29T06:46:49.780Z,29.57
2017-05-29T06:48:00.021Z,29.52
2017-05-29T06:49:09.943Z,29.52
2017-05-29T06:50:20.219Z,29.55
2017-05-29T06:51:29.839Z,29.67
2017-05-29T06:52:39.462Z,29.76
2017-05-29T06:53:49.408Z,30
2017-05-29T06:54:59.651Z,30.26
2017-05-29T06:56:09.747Z,30.37
2017-05-29T06:57:18.798Z,30.46
2017-05-29T06:58:28.426Z,30.65
2017-05-29T06:59:37.746Z,30.86
2017-05-29T07:00:47.381Z,30.95
2017-05-29T07:01:58.035Z,31.04
2017-05-29T07:03:08.286Z,31.1
2017-05-29T07:04:18.521Z,31.21
2017-05-29T07:05:28.446Z,31.34
2017-05-29T07:06:38.690Z,31.41
2017-05-29T07:07:48.946Z,31.47
2017-05-29T07:08:58.576Z,31.44
2017-05-29T07:10:08.512Z,31.65
2017-05-29T07:11:18.455Z,31.63
2017-05-29T07:12:27.460Z,31.81
2017-05-29T07:13:37.398Z,31.84
2017-05-29T07:14:47.391Z,31.89
2017-05-29T07:15:57.332Z,32
2017-05-29T07:17:07.272Z,32.13
2017-05-29T07:18:17.209Z,32.26
2017-05-29T07:19:27.309Z,32.4
2017-05-29T07:20:37.257Z,32.4
2017-05-29T07:21:47.182Z,32.5
2017-05-29T07:22:57.102Z,32.63
2017-05-29T07:24:07.014Z,32.56
2017-05-29T07:25:17.090Z,32.74
2017-05-29T07:26:26.706Z,32.7
2017-05-29T07:27:36.348Z,32.87
2017-05-29T07:28:45.663Z,32.94
2017-05-29T07:29:55.643Z,33.03
2017-05-29T07:31:05.273Z,33.22
2017-05-29T07:32:14.925Z,33.31
2017-05-29T07:33:24.640Z,33.47
2017-05-29T07:34:33.951Z,33.54
2017-05-29T07:35:44.237Z,33.79
2017-05-29T07:36:53.933Z,33.9
2017-05-29T07:38:03.573Z,34.05
2017-05-29T07:39:13.823Z,34.27
2017-05-29T07:40:24.079Z,34.44
2017-05-29T07:41:34.390Z,34.66
2017-05-29T07:42:44.040Z,34.73
2017-05-29T07:43:54.003Z,34.91
2017-05-29T07:45:04.267Z,35.11
2017-05-29T07:46:14.196Z,35.21
2017-05-29T07:47:24.453Z,35.29
2017-05-29T07:48:33.980Z,35.47
2017-05-29T07:49:43.620Z,35.65
2017-05-29T07:50:53.279Z,35.8
2017-05-29T07:52:03.208Z,35.87
2017-05-29T07:53:13.135Z,35.96
2017-05-29T07:54:22.780Z,36.12
2017-05-29T07:55:32.708Z,36.27
2017-05-29T07:56:42.965Z,36.35
2017-05-29T07:57:52.280Z,36.38
2017-05-29T07:59:02.218Z,36.54
2017-05-29T08:00:12.498Z,36.53
2017-05-29T08:01:22.431Z,36.73
2017-05-29T08:02:32.810Z,36.91
2017-05-29T08:03:42.754Z,36.99
2017-05-29T08:04:52.685Z,37.09
2017-05-29T08:06:01.848Z,37.21
2017-05-29T08:07:11.476Z,37.27
2017-05-29T08:08:21.405Z,37.37
2017-05-29T08:09:31.038Z,37.34
2017-05-29T08:10:40.993Z,37.59
2017-05-29T08:11:50.410Z,37.55
2017-05-29T08:13:00.332Z,37.64
2017-05-29T08:14:09.950Z,37.75
2017-05-29T08:15:20.187Z,37.88
2017-05-29T08:16:29.815Z,37.96
2017-05-29T08:17:40.117Z,38
2017-05-29T08:18:49.754Z,38.01
2017-05-29T08:19:59.698Z,38.01
2017-05-29T08:21:09.940Z,38.06
2017-05-29T08:22:19.871Z,38.16
2017-05-29T08:23:29.354Z,38.25
2017-05-29T08:24:39.625Z,38.3
2017-05-29T08:25:49.616Z,38.3
2017-05-29T08:26:59.245Z,38.03
2017-05-29T08:28:09.497Z,37.85
2017-05-29T08:29:19.592Z,37.76
2017-05-29T08:30:29.831Z,37.91
2017-05-29T08:31:39.761Z,37.88
2017-05-29T08:32:49.688Z,37.74
2017-05-29T08:33:59.939Z,37.57
2017-05-29T08:35:09.314Z,37.36
2017-05-29T08:36:19.259Z,36.94
2017-05-29T08:37:28.888Z,36.53
2017-05-29T08:38:38.853Z,36.13
2017-05-29T08:39:48.479Z,35.84
2017-05-29T08:40:58.264Z,35.52
2017-05-29T08:42:08.500Z,35.26
2017-05-29T08:43:18.130Z,35.07
2017-05-29T08:44:28.450Z,34.77
2017-05-29T08:45:38.062Z,34.58
2017-05-29T08:46:47.837Z,34.44
2017-05-29T08:47:57.795Z,34.25
2017-05-29T08:49:07.737Z,34
2017-05-29T08:50:17.351Z,33.91
2017-05-29T08:51:26.963Z,33.69
2017-05-29T08:52:37.065Z,33.56
2017-05-29T08:53:46.704Z,33.49
2017-05-29T08:54:56.637Z,33.31
2017-05-29T08:56:06.593Z,33.11
2017-05-29T08:57:16.544Z,33.03
2017-05-29T08:58:26.632Z,32.93
2017-05-29T08:59:36.889Z,32.74
2017-05-29T09:00:46.513Z,32.63
2017-05-29T09:01:56.451Z,32.47
2017-05-29T09:03:06.389Z,32.4
2017-05-29T09:04:16.006Z,32.19
2017-05-29T09:05:25.325Z,32.01
2017-05-29T09:06:35.586Z,31.92
2017-05-29T09:07:45.845Z,31.85
2017-05-29T09:08:55.780Z,31.72
2017-05-29T09:10:05.248Z,31.56
2017-05-29T09:11:14.864Z,31.47
2017-05-29T09:12:24.795Z,31.35
2017-05-29T09:13:34.735Z,31.32
2017-05-29T09:14:44.974Z,31.19
2017-05-29T09:15:55.047Z,31.07
2017-05-29T09:17:04.666Z,30.98
2017-05-29T09:18:14.296Z,30.89
2017-05-29T09:19:24.227Z,30.89
2017-05-29T09:20:33.852Z,30.83
2017-05-29T09:21:44.117Z,30.72
2017-05-29T09:22:54.045Z,30.69
2017-05-29T09:24:03.373Z,30.57
2017-05-29T09:25:13.299Z,30.47
2017-05-29T09:26:22.616Z,30.47
2017-05-29T09:27:32.721Z,30.37
2017-05-29T09:28:42.360Z,30.26
2017-05-29T09:29:52.617Z,30.29
2017-05-29T09:31:01.957Z,30.29
2017-05-29T09:32:11.585Z,30.1
2017-05-29T09:33:21.362Z,30.08
2017-05-29T09:34:30.989Z,30
2017-05-29T09:35:40.929Z,30.1
2017-05-29T09:36:50.874Z,29.97
2017-05-29T09:38:00.193Z,29.95
2017-05-29T09:39:09.674Z,29.89
2017-05-29T09:40:19.295Z,29.83
2017-05-29T09:41:29.220Z,29.82
2017-05-29T09:42:38.846Z,29.79
2017-05-29T09:43:48.791Z,29.73
2017-05-29T09:44:58.897Z,29.65
2017-05-29T09:46:08.527Z,29.78
2017-05-29T09:47:18.459Z,29.7
2017-05-29T09:48:28.081Z,29.63
2017-05-29T09:49:38.008Z,29.71
2017-05-29T09:50:48.052Z,29.58
2017-05-29T09:51:57.973Z,29.73
2017-05-29T09:53:07.911Z,29.64
2017-05-29T09:54:17.901Z,29.6
2017-05-29T09:55:28.138Z,29.61
2017-05-29T09:56:38.483Z,29.49
2017-05-29T09:57:48.718Z,29.52
2017-05-29T09:58:58.649Z,29.43
2017-05-29T10:00:08.262Z,29.45
2017-05-29T10:01:17.799Z,29.43
2017-05-29T10:02:27.574Z,29.46
2017-05-29T10:03:37.823Z,29.45
2017-05-29T10:04:47.760Z,29.41
2017-05-29T10:05:57.718Z,29.45
2017-05-29T10:07:07.339Z,29.41
2017-05-29T10:08:16.355Z,29.42
2017-05-29T10:09:26.002Z,29.33
2017-05-29T10:10:35.949Z,29.34
2017-05-29T10:11:46.003Z,29.33
2017-05-29T10:12:55.947Z,29.33
2017-05-29T10:14:05.715Z,29.24
2017-05-29T10:15:15.622Z,29.3
2017-05-29T10:16:25.539Z,29.27
2017-05-29T10:17:35.157Z,29.3
2017-05-29T10:18:45.400Z,29.21
2017-05-29T10:19:55.072Z,29.24
2017-05-29T10:21:05.303Z,29.24
2017-05-29T10:22:14.915Z,29.28
2017-05-29T10:23:24.530Z,29.26
2017-05-29T10:24:34.140Z,29.23
2017-05-29T10:25:44.226Z,29.18
2017-05-29T10:26:54.160Z,29.23
2017-05-29T10:28:04.120Z,29.18
2017-05-29T10:29:13.757Z,29.12
2017-05-29T10:30:23.993Z,29.21
2017-05-29T10:31:34.448Z,29.15
2017-05-29T10:32:44.687Z,29.27
2017-05-29T10:33:54.306Z,29.15
2017-05-29T10:35:04.550Z,29.11
2017-05-29T10:36:13.868Z,29.06
2017-05-29T10:37:23.814Z,29.21
2017-05-29T10:38:33.125Z,29.08
2017-05-29T10:39:42.741Z,29.06
2017-05-29T10:40:52.658Z,29.14
2017-05-29T10:42:02.331Z,29.06
2017-05-29T10:43:12.083Z,29.12
2017-05-29T10:44:22.319Z,29.16
2017-05-29T10:45:31.964Z,29.15
2017-05-29T10:46:41.577Z,29.11
2017-05-29T10:47:51.517Z,29.08
2017-05-29T10:49:01.579Z,29.08
2017-05-29T10:50:11.579Z,29.09
2017-05-29T10:51:21.203Z,29.09
2017-05-29T10:52:30.512Z,29.08
2017-05-29T10:53:40.741Z,28.98
2017-05-29T10:54:50.706Z,29.08
2017-05-29T10:56:00.335Z,29.04
2017-05-29T10:57:10.594Z,29.14
2017-05-29T10:58:20.228Z,28.95
2017-05-29T10:59:30.476Z,29.02
2017-05-29T11:00:40.776Z,28.95
2017-05-29T11:01:50.403Z,28.92
2017-05-29T11:03:00.357Z,29.14
2017-05-29T11:04:10.301Z,29.05
2017-05-29T11:05:20.300Z,29.05
2017-05-29T11:09:02.658Z,29.05
2017-05-29T11:10:12.668Z,28.95
2017-05-29T11:11:21.691Z,29
2017-05-29T11:12:31.296Z,29.02
2017-05-29T11:13:41.226Z,28.95
2017-05-29T11:14:51.308Z,28.95
2017-05-29T11:16:01.249Z,29.02
2017-05-29T11:17:10.879Z,28.93
2017-05-29T11:18:20.523Z,29.12
2017-05-29T11:19:30.759Z,28.98
2017-05-29T11:20:40.792Z,28.98
2017-05-29T11:21:50.413Z,28.96
2017-05-29T11:23:00.356Z,29.04
2017-05-29T11:24:10.288Z,28.98
2017-05-29T11:25:20.235Z,28.96
2017-05-29T11:26:30.171Z,29.08
2017-05-29T11:27:40.134Z,28.95
2017-05-29T11:28:49.748Z,29.08
2017-05-29T11:29:59.361Z,28.98
2017-05-29T11:31:08.988Z,28.98
2017-05-29T11:32:19.062Z,28.98
2017-05-29T11:33:28.663Z,28.92
2017-05-29T11:34:38.573Z,28.98
2017-05-29T11:35:48.807Z,29.02
2017-05-29T11:36:58.740Z,29
2017-05-29T11:38:09.080Z,28.95
2017-05-29T11:39:19.378Z,29.02
2017-05-29T11:40:29.642Z,28.98
2017-05-29T11:41:39.570Z,28.96
2017-05-29T11:42:49.491Z,28.95
2017-05-29T11:43:59.596Z,28.86
2017-05-29T11:45:08.931Z,29.02
2017-05-29T11:46:17.926Z,28.9
2017-05-29T11:47:28.147Z,29.04
2017-05-29T11:48:38.414Z,28.9
2017-05-29T11:49:48.328Z,28.93
2017-05-29T11:50:58.331Z,28.96
2017-05-29T11:52:07.954Z,28.92
2017-05-29T11:53:17.575Z,28.95
2017-05-29T11:54:27.800Z,28.86
2017-05-29T11:55:38.166Z,28.92
2017-05-29T11:56:48.405Z,28.96
2017-05-29T11:57:58.350Z,28.95
2017-05-29T11:59:08.300Z,28.9
2017-05-29T12:00:17.598Z,28.9
2017-05-29T12:01:27.520Z,28.92
2017-05-29T12:02:37.149Z,28.93
2017-05-29T12:03:46.760Z,28.96
2017-05-29T12:04:56.132Z,28.95
2017-05-29T12:06:06.072Z,28.95
2017-05-29T12:07:15.754Z,28.92
2017-05-29T12:08:26.001Z,28.9
2017-05-29T12:09:35.931Z,28.92
2017-05-29T12:10:45.554Z,28.93
2017-05-29T12:11:55.789Z,28.92
2017-05-29T12:13:05.501Z,28.92
2017-05-29T12:14:15.425Z,28.93
2017-05-29T12:15:24.744Z,28.92
2017-05-29T12:16:34.069Z,28.98
2017-05-29T12:17:44.015Z,28.93
2017-05-29T12:18:53.489Z,28.92
2017-05-29T12:20:03.104Z,28.9
2017-05-29T12:21:12.740Z,28.86
2017-05-29T12:22:22.055Z,28.89
2017-05-29T12:23:31.664Z,28.98
2017-05-29T12:24:41.596Z,28.92
2017-05-29T12:25:51.249Z,28.96
2017-05-29T12:27:00.867Z,28.95
2017-05-29T12:28:11.173Z,28.93
2017-05-29T12:29:21.123Z,28.9
2017-05-29T12:30:31.287Z,28.95
2017-05-29T12:31:41.262Z,28.89
2017-05-29T12:32:50.871Z,28.95
2017-05-29T12:34:01.112Z,28.92
2017-05-29T12:35:10.747Z,29
2017-05-29T12:36:20.420Z,28.98
2017-05-29T12:37:30.050Z,28.92
2017-05-29T12:38:39.985Z,28.93
2017-05-29T12:39:49.918Z,28.9
2017-05-29T12:40:59.841Z,28.92
2017-05-29T12:42:09.755Z,28.93
2017-05-29T12:43:19.073Z,28.88
2017-05-29T12:44:29.013Z,28.9
2017-05-29T12:45:39.013Z,28.92
2017-05-29T12:46:48.646Z,29.02
2017-05-29T12:47:58.563Z,28.93
2017-05-29T12:49:08.529Z,28.98
2017-05-29T12:50:18.488Z,28.9
2017-05-29T12:51:28.732Z,28.93
2017-05-29T12:52:38.651Z,28.98
2017-05-29T12:53:48.636Z,28.88
2017-05-29T12:54:57.954Z,28.95
2017-05-29T12:56:07.889Z,28.86
2017-05-29T12:57:17.205Z,28.93
2017-05-29T12:58:27.129Z,28.96
2017-05-29T12:59:37.515Z,28.95
2017-05-29T13:00:47.441Z,28.93
2017-05-29T13:01:57.054Z,28.96
2017-05-29T13:03:06.963Z,28.98
2017-05-29T13:04:17.193Z,28.93
2017-05-29T13:05:26.930Z,28.92
2017-05-29T13:06:36.870Z,28.98
2017-05-29T13:07:46.841Z,29.04
2017-05-29T13:08:56.495Z,29
2017-05-29T13:10:06.436Z,29.05
2017-05-29T13:11:15.742Z,28.98
2017-05-29T13:12:25.966Z,28.98
2017-05-29T13:13:35.586Z,29.02
2017-05-29T13:14:45.504Z,28.96
2017-05-29T13:15:55.126Z,28.89
2017-05-29T13:17:04.888Z,28.96
2017-05-29T13:18:14.210Z,29.04
2017-05-29T13:19:24.479Z,29.05
2017-05-29T13:20:34.401Z,28.93
2017-05-29T13:21:44.027Z,29
2017-05-29T13:22:53.399Z,28.95
2017-05-29T13:24:03.336Z,28.95
2017-05-29T13:25:13.563Z,29
2017-05-29T13:26:23.487Z,28.98
2017-05-29T13:27:32.883Z,29.05
2017-05-29T13:28:42.862Z,29.04
2017-05-29T13:29:52.530Z,29
2017-05-29T13:31:02.787Z,29
2017-05-29T13:32:12.723Z,28.93
2017-05-29T13:33:22.649Z,29.04
2017-05-29T13:34:32.998Z,28.98
2017-05-29T13:35:41.998Z,28.92
2017-05-29T13:36:51.606Z,29.02
2017-05-29T13:38:01.545Z,29.05
2017-05-29T13:39:11.786Z,28.98
2017-05-29T13:40:21.769Z,29
2017-05-29T13:41:31.387Z,29.04
2017-05-29T13:42:41.639Z,28.96
2017-05-29T13:43:51.297Z,29.12
2017-05-29T13:45:01.248Z,29
2017-05-29T13:46:10.859Z,29.06
2017-05-29T13:47:20.792Z,29
2017-05-29T13:48:30.412Z,28.98
2017-05-29T13:49:39.750Z,28.96
2017-05-29T13:50:49.402Z,29
2017-05-29T13:51:59.753Z,29.04
2017-05-29T13:53:09.387Z,29.06
2017-05-29T13:54:19.611Z,29.04
2017-05-29T13:55:29.535Z,29.05
2017-05-29T13:56:39.464Z,29
2017-05-29T13:57:49.244Z,29.04
2017-05-29T13:58:59.473Z,29
2017-05-29T14:00:09.424Z,28.96
2017-05-29T14:01:19.355Z,28.98
2017-05-29T14:02:29.003Z,29
2017-05-29T14:03:39.031Z,29.06
2017-05-29T14:04:49.279Z,29.02
2017-05-29T14:05:59.504Z,29.05
2017-05-29T14:07:09.118Z,29.02
2017-05-29T14:08:18.750Z,29.04
2017-05-29T14:09:28.679Z,28.98
2017-05-29T14:10:38.311Z,29.04
2017-05-29T14:11:48.270Z,29.06
2017-05-29T14:12:58.202Z,29
2017-05-29T14:14:07.853Z,28.98
2017-05-29T14:15:17.287Z,28.98
2017-05-29T14:16:26.928Z,29.02
2017-05-29T14:17:36.584Z,29.02
2017-05-29T14:18:46.562Z,29.02
2017-05-29T14:19:56.509Z,29.04
2017-05-29T14:21:06.903Z,29
2017-05-29T14:22:16.822Z,29.08
2017-05-29T14:23:26.737Z,29.09
2017-05-29T14:24:36.964Z,29.08
2017-05-29T14:25:46.961Z,29.12
2017-05-29T14:26:57.246Z,29.04
2017-05-29T14:28:06.879Z,29.09
2017-05-29T14:29:16.205Z,29.08
2017-05-29T14:30:26.453Z,29.14
2017-05-29T14:31:36.406Z,29.16
2017-05-29T14:32:46.171Z,29.08
2017-05-29T14:33:56.097Z,29.11
2017-05-29T14:35:05.436Z,29.08
2017-05-29T14:36:15.054Z,29.06
2017-05-29T14:37:24.976Z,29.14
2017-05-29T14:38:34.449Z,29.06
2017-05-29T14:39:44.379Z,29.08
2017-05-29T14:40:54.313Z,29.06
2017-05-29T14:42:03.965Z,29.09
2017-05-29T14:43:13.897Z,29.09
2017-05-29T14:44:23.832Z,29.16
2017-05-29T14:45:33.188Z,29.15
2017-05-29T14:46:43.120Z,29.15
2017-05-29T14:47:53.038Z,29.09
2017-05-29T14:49:02.973Z,29.21
2017-05-29T14:50:12.639Z,29.12
2017-05-29T14:51:22.272Z,29.15
2017-05-29T14:52:32.207Z,29.09
2017-05-29T14:53:41.852Z,29.14
2017-05-29T14:54:51.497Z,29.12
2017-05-29T14:56:01.142Z,29.19
2017-05-29T14:57:11.072Z,29.14
2017-05-29T14:58:20.374Z,29.12
2017-05-29T14:59:30.602Z,29.08
2017-05-29T15:00:40.517Z,29.15
2017-05-29T15:01:50.889Z,29.16
2017-05-29T15:03:00.809Z,29.24
2017-05-29T15:04:10.421Z,29.23
2017-05-29T15:05:20.037Z,29.18
2017-05-29T15:06:29.665Z,29.26
2017-05-29T15:07:39.424Z,29.18
2017-05-29T15:08:49.359Z,29.16
2017-05-29T15:09:59.611Z,29.21
2017-05-29T15:11:09.551Z,29.16
2017-05-29T15:12:19.785Z,29.19
2017-05-29T15:13:29.878Z,29.15
2017-05-29T15:14:39.518Z,29.18
2017-05-29T15:15:49.775Z,29.11
2017-05-29T15:17:00.005Z,29.27
2017-05-29T15:18:09.325Z,29.15
2017-05-29T15:19:19.712Z,29.15
2017-05-29T15:20:29.395Z,29.12
2017-05-29T15:21:38.738Z,29.19
2017-05-29T15:22:48.998Z,29.21
2017-05-29T15:23:58.970Z,29.23
2017-05-29T15:25:08.595Z,29.15
2017-05-29T15:26:18.536Z,29.16
2017-05-29T15:27:28.161Z,29.24
2017-05-29T15:28:38.402Z,29.12
2017-05-29T15:29:48.368Z,29.16
2017-05-29T15:30:58.347Z,29.14
2017-05-29T15:32:07.971Z,29.27
2017-05-29T15:33:18.197Z,29.24